Data for 07/03/2010

Time Sea-Level Adjusted Pressure Absolute Pressure Temperature Relative Humidity Dew Point   
(mb) (inHg) (mb) (inHg) (C) (F) (%) (C) (F)
00:05 1013 29.91 842 24.86 12.6 54.6 74 8.2 46.7
00:10 1013 29.91 842 24.86 12.6 54.6 74 8.2 46.7
00:15 1013 29.91 842 24.86 12.6 54.7 74 8.1 46.5
00:20 1013 29.91 842 24.86 12.6 54.6 75 8.2 46.7
00:25 1013 29.91 842 24.86 12.5 54.5 75 8.2 46.7
00:30 1013 29.91 842 24.86 12.5 54.5 74 8.1 46.6
00:35 1013 29.91 842 24.86 12.5 54.6 74 8.1 46.6
00:40 1013 29.91 842 24.86 12.7 54.8 73 8 46.4
00:45 1013 29.91 842 24.86 12.5 54.4 74 7.9 46.2
00:50 1013 29.91 842 24.86 12.4 54.4 74 7.9 46.2
00:55 1013 29.91 842 24.86 12.5 54.6 72 7.8 46
01:00 1013 29.91 842 24.86 12.5 54.5 72 7.6 45.8
01:05 1013 29.91 842 24.86 12.6 54.6 71 7.6 45.6
01:10 1013 29.91 842 24.86 12.6 54.7 72 7.7 45.8
01:15 1013 29.91 842 24.86 12.6 54.6 71 7.5 45.4
01:20 1013 29.91 842 24.86 12.6 54.8 70 7.3 45.1
01:25 1013 29.91 842 24.86 12.7 54.9 70 7.4 45.4
01:30 1013 29.91 842 24.86 12.6 54.7 71 7.6 45.7
01:35 1013 29.91 842 24.86 12.5 54.5 72 7.6 45.8
01:40 1013 29.91 842 24.86 12.4 54.4 72 7.6 45.7
01:45 1013 29.91 842 24.86 12.3 54.2 72 7.5 45.5
01:50 1013 29.91 842 24.86 12.3 54.1 73 7.6 45.7
01:55 1013 29.91 842 24.86 12.2 54 73 7.5 45.5
02:00 1013 29.91 842 24.86 12.2 54 72 7.3 45.1
02:05 1013 29.91 842 24.86 12.2 54 72 7.3 45.1
02:10 1013 29.91 842 24.86 12.2 53.9 72 7.3 45.2
02:15 1013 29.91 843 24.89 12.2 53.9 72 7.4 45.2
02:20 1013 29.91 843 24.89 12.2 53.9 72 7.3 45.1
02:25 1013 29.91 842 24.86 12.1 53.9 72 7.2 45
02:30 1013 29.91 842 24.86 12.1 53.8 72 7.2 45
02:35 1013 29.91 842 24.86 12.1 53.7 71 7.1 44.8
02:40 1013 29.91 842 24.86 12 53.7 70 6.8 44.3
02:45 1013 29.91 842 24.86 12.1 53.7 70 6.8 44.3
02:50 1013 29.91 842 24.86 12 53.7 69 6.6 43.9
02:55 1013 29.91 842 24.86 12 53.6 70 6.7 44.1
03:00 1013 29.91 842 24.86 11.8 53.2 71 6.8 44.2
03:05 1013 29.91 842 24.86 11.7 53.1 70 6.5 43.7
03:10 1013 29.91 842 24.86 11.6 52.8 71 6.5 43.7
03:15 1013 29.91 842 24.86 11.5 52.6 71 6.4 43.6
03:20 1013 29.91 842 24.86 11.5 52.6 70 6.2 43.1
03:25 1013 29.91 842 24.86 11.5 52.6 68 5.8 42.5
03:30 1013 29.91 842 24.86 11.5 52.7 69 6 42.9
03:35 1013 29.91 842 24.86 11.5 52.7 68 5.9 42.6
03:40 1013 29.91 842 24.86 11.5 52.7 67 5.6 42.1
03:45 1013 29.91 842 24.86 11.5 52.6 65 5.2 41.4
03:50 1013 29.91 842 24.86 11.5 52.6 65 5.3 41.5
03:55 1013 29.91 842 24.86 11.4 52.4 67 5.5 41.8
04:00 1013 29.91 842 24.86 11.3 52.3 69 5.9 42.6
04:05 1013 29.91 842 24.86 11.2 52.1 71 6.1 42.9
04:10 1013 29.91 842 24.86 11.1 51.9 73 6.4 43.5
04:15 1013 29.91 842 24.86 10.8 51.4 74 6.4 43.4
04:20 1013 29.91 842 24.86 10.6 51 75 6.3 43.4
04:25 1013 29.91 842 24.86 10.4 50.7 74 6 42.8
04:30 1013 29.91 843 24.89 10.2 50.3 74 5.9 42.5
04:35 1013 29.91 843 24.89 10.1 50.1 74 5.6 42.1
04:40 1014 29.94 843 24.89 9.8 49.6 75 5.6 42.1
04:45 1014 29.94 843 24.89 9.5 49.1 77 5.6 42.2
04:50 1014 29.94 843 24.89 9.4 48.9 77 5.6 42.1
04:55 1014 29.94 843 24.89 9.3 48.8 78 5.7 42.3
05:00 1014 29.94 844 24.92 9.3 48.7 76 5.4 41.7
05:05 1014 29.94 844 24.92 9.3 48.8 76 5.4 41.6
05:10 1014 29.94 844 24.92 9.3 48.7 74 4.9 40.9
05:15 1015 29.97 844 24.92 9.2 48.5 73 4.6 40.3
05:20 1015 29.97 844 24.92 9 48.2 74 4.6 40.3
05:25 1015 29.97 844 24.92 8.9 48 75 4.7 40.5
05:30 1015 29.97 844 24.92 8.8 47.8 76 4.8 40.6
05:35 1015 29.97 844 24.92 8.7 47.7 76 4.8 40.6
05:40 1015 29.97 844 24.92 8.5 47.4 78 4.9 40.8
05:45 1015 29.97 844 24.92 8.1 46.6 78 4.6 40.2
05:50 1015 29.97 844 24.92 7.9 46.2 79 4.4 40
05:55 1015 29.97 844 24.92 7.6 45.7 81 4.5 40.1
06:00 1015 29.97 845 24.95 7.3 45.1 81 4.3 39.8
06:05 1015 29.97 845 24.95 7.1 44.8 82 4.2 39.6
06:10 1016 30 845 24.95 6.9 44.5 83 4.2 39.5
06:15 1016 30 845 24.95 6.9 44.5 83 4.2 39.6
06:20 1016 30 845 24.95 6.9 44.5 83 4.2 39.5
06:25 1016 30 845 24.95 6.8 44.3 83 4.2 39.6
06:30 1016 30 845 24.95 6.7 44 85 4.3 39.7
06:35 1016 30 846 24.98 6.6 43.9 85 4.3 39.7
06:40 1016 30 846 24.98 6.6 43.9 84 4.1 39.5
06:45 1017 30.03 846 24.98 6.6 43.9 84 4 39.2
06:50 1017 30.03 846 24.98 6.6 43.8 85 4.2 39.5
06:55 1017 30.03 846 24.98 6.4 43.5 86 4.2 39.6
07:00 1017 30.03 846 24.98 6.3 43.4 88 4.4 40
07:05 1017 30.03 846 24.98 6.2 43.2 90 4.7 40.4
07:10 1017 30.03 846 24.98 6.1 43 90 4.7 40.4
07:15 1017 30.03 846 24.98 6.1 43 91 4.8 40.6
07:20 1017 30.03 846 24.98 6.1 43 91 4.8 40.6
07:25 1017 30.03 846 24.98 6.1 43 92 4.9 40.8
07:30 1017 30.03 846 24.98 6.2 43.2 91 4.9 40.9
07:35 1017 30.03 846 24.98 6.2 43.2 91 4.8 40.6
07:40 1017 30.03 846 24.98 6.1 43 90 4.6 40.3
07:45 1017 30.03 846 24.98 6 42.7 91 4.6 40.2
07:50 1017 30.03 847 25.01 6 42.7 91 4.6 40.2
07:55 1018 30.06 847 25.01 5.9 42.7 91 4.5 40.2
08:00 1018 30.06 847 25.01 6 42.7 91 4.6 40.2
08:05 1018 30.06 847 25.01 6 42.8 90 4.5 40
08:10 1018 30.06 847 25.01 6 42.9 91 4.6 40.3
08:15 1018 30.06 847 25.01 6.1 43 90 4.7 40.4
08:20 1018 30.06 847 25.01 6.3 43.3 90 4.8 40.6
08:25 1018 30.06 847 25.01 6.4 43.6 90 4.9 40.9
08:30 1018 30.06 847 25.01 6.5 43.7 88 4.7 40.4
08:35 1018 30.06 847 25.01 6.6 43.9 87 4.6 40.3
08:40 1018 30.06 847 25.01 6.5 43.7 86 4.4 39.9
08:45 1018 30.06 847 25.01 6.3 43.4 83 3.7 38.7
08:50 1018 30.06 847 25.01 6.1 43 87 4 39.2
08:55 1018 30.06 847 25.01 5.8 42.4 86 3.7 38.6
09:00 1018 30.06 847 25.01 5.7 42.3 88 3.9 38.9
09:05 1018 30.06 847 25.01 6 42.7 86 3.9 38.9
09:10 1018 30.06 847 25.01 6.1 42.9 84 3.5 38.3
09:15 1018 30.06 847 25.01 6 42.8 85 3.6 38.5
09:20 1018 30.06 847 25.01 6 42.8 86 3.8 38.9
09:25 1018 30.06 847 25.01 6.3 43.3 86 4.1 39.4
09:30 1018 30.06 847 25.01 6.6 43.9 81 3.7 38.6
09:35 1018 30.06 847 25.01 6.8 44.3 74 2.4 36.4
09:40 1018 30.06 847 25.01 7.1 44.7 80 3.9 39
09:45 1018 30.06 847 25.01 7.2 45 77 3.4 38.1
09:50 1018 30.06 847 25.01 7.5 45.4 71 2.6 36.7
09:55 1018 30.06 847 25.01 7.7 45.8 73 3.2 37.8
10:00 1018 30.06 847 25.01 7.9 46.3 72 3.2 37.8
10:05 1018 30.06 847 25.01 8.1 46.5 68 2.6 36.7
10:10 1018 30.06 847 25.01 8.3 47 67 2.6 36.7
10:15 1018 30.06 847 25.01 8.7 47.7 64 2.3 36.1
10:20 1018 30.06 847 25.01 8.8 47.9 66 2.9 37.2
10:25 1018 30.06 847 25.01 9 48.2 65 2.8 37
10:30 1018 30.06 847 25.01 9.1 48.4 67 3.3 37.9
10:35 1018 30.06 847 25.01 9.5 49 63 2.7 36.9
10:40 1018 30.06 847 25.01 9.9 49.7 58 2 35.6
10:45 1018 30.06 847 25.01 10.6 51 59 2.8 37.1
10:50 1018 30.06 847 25.01 10.2 50.4 61 3.1 37.6
10:55 1018 30.06 847 25.01 10.2 50.3 60 2.8 37
11:00 1018 30.06 847 25.01 10.6 51 60 3.1 37.5
11:05 1018 30.06 847 25.01 11.3 52.4 57 3.1 37.6
11:10 1018 30.06 847 25.01 11.3 52.3 55 2.5 36.5
11:15 1018 30.06 847 25.01 11.6 52.9 54 2.5 36.6
11:20 1018 30.06 847 25.01 12 53.6 52 2.4 36.4
11:25 1018 30.06 847 25.01 12.1 53.7 49 1.9 35.4
11:30 1018 30.06 847 25.01 12.3 54.2 48 1.8 35.3
11:35 1018 30.06 847 25.01 13.2 55.7 45 1.7 35.1
11:40 1018 30.06 847 25.01 13.8 56.8 46 2.6 36.6
11:45 1018 30.06 847 25.01 13.5 56.3 47 2.7 36.8
11:50 1018 30.06 847 25.01 13.8 56.9 47 2.8 37
11:55 1018 30.06 847 25.01 13.5 56.4 50 3.5 38.3
12:00 1018 30.06 847 25.01 13.5 56.4 47 2.5 36.5
12:05 1018 30.06 847 25.01 14 57.1 46 2.5 36.5
12:10 1018 30.06 847 25.01 13.9 57.1 47 2.8 37
12:15 1018 30.06 847 25.01 14.7 58.5 41 1.7 35
12:20 1018 30.06 847 25.01 14.5 58.1 46 3.1 37.5
12:25 1018 30.06 847 25.01 14.3 57.7 43 1.8 35.2
12:30 1018 30.06 847 25.01 14.4 58 45 2.7 36.8
12:35 1018 30.06 847 25.01 15 58.9 46 3.4 38.2
12:40 1018 30.06 847 25.01 14.7 58.5 44 2.7 36.8
12:45 1018 30.06 847 25.01 14.5 58 46 3.1 37.5
12:50 1018 30.06 847 25.01 14.8 58.6 43 2.4 36.3
12:55 1018 30.06 847 25.01 15 59 40 1.7 35
13:00 1018 30.06 847 25.01 15 58.9 43 2.6 36.6
13:05 1018 30.06 847 25.01 15.3 59.6 40 1.9 35.4
13:10 1018 30.06 847 25.01 15.5 59.9 39 1.7 35
13:15 1018 30.06 847 25.01 15.2 59.4 43 2.8 37
13:20 1018 30.06 847 25.01 16.2 61.2 37 1.7 35
13:25 1018 30.06 847 25.01 16.9 62.4 33 0.8 33.4
13:30 1018 30.06 847 25.01 16.2 61.1 37 1.5 34.8
13:35 1018 30.06 847 25.01 16.2 61.2 36 1.4 34.6
13:40 1018 30.06 847 25.01 16.6 61.9 37 2.1 35.7
13:45 1018 30.06 847 25.01 16.6 61.9 36 1.7 35.1
13:50 1018 30.06 847 25.01 16.7 62.1 37 1.9 35.4
13:55 1018 30.06 847 25.01 16.8 62.2 35 1.3 34.3
14:00 1018 30.06 847 25.01 16 60.8 39 2 35.6
14:05 1018 30.06 847 25.01 15.3 59.6 38 1.1 34.1
14:10 1018 30.06 847 25.01 16.6 62 36 1.5 34.7
14:15 1018 30.06 847 25.01 16.2 61.1 38 2 35.6
14:20 1018 30.06 847 25.01 16.1 61 38 1.7 35.1
14:25 1018 30.06 847 25.01 17.3 63.1 34 1.4 34.6
14:30 1018 30.06 847 25.01 17.2 63 34 1.3 34.3
14:35 1018 30.06 847 25.01 16.6 61.9 35 1.4 34.5
14:40 1018 30.06 847 25.01 17.2 62.9 34 1.2 34.1
14:45 1018 30.06 847 25.01 17.1 62.7 36 2.1 35.8
14:50 1018 30.06 847 25.01 17 62.7 36 2.1 35.7
14:55 1018 30.06 847 25.01 16.7 62.1 34 1 33.8
15:00 1017 30.03 847 25.01 16.7 62.1 32 0.2 32.3
15:05 1017 30.03 847 25.01 17.6 63.7 31 0.5 32.8
15:10 1017 30.03 847 25.01 17.8 64 32 0.8 33.5
15:15 1017 30.03 847 25.01 17.4 63.2 33 0.9 33.7
15:20 1017 30.03 847 25.01 17.5 63.5 33 1.3 34.4
15:25 1017 30.03 847 25.01 18.2 64.8 32 1.2 34.2
15:30 1017 30.03 847 25.01 18.7 65.7 30 0.8 33.4
15:35 1017 30.03 847 25.01 18.5 65.3 31 1.1 33.9
15:40 1017 30.03 847 25.01 17.9 64.3 32 1.3 34.3
15:45 1017 30.03 847 25.01 18 64.4 29 -0.3 31.4
15:50 1017 30.03 847 25.01 18.6 65.4 30 0.6 33.1
15:55 1017 30.03 847 25.01 18.9 66 29 0.7 33.2
16:00 1017 30.03 847 25.01 18.8 65.8 29 0.6 33.2
16:05 1017 30.03 847 25.01 18.7 65.7 29 0.5 32.9
16:10 1017 30.03 847 25.01 18.7 65.6 29 0.3 32.6
16:15 1017 30.03 847 25.01 19.1 66.4 28 0.4 32.8
16:20 1017 30.03 846 24.98 19.3 66.7 28 0.5 32.9
16:25 1017 30.03 846 24.98 18.9 66.1 28 0.1 32.2
16:30 1017 30.03 847 25.01 18.5 65.3 27 -0.7 30.8
16:35 1017 30.03 846 24.98 18.5 65.2 28 -0.4 31.2
16:40 1017 30.03 846 24.98 19.2 66.6 26 -0.4 31.2
16:45 1017 30.03 846 24.98 19.1 66.4 28 0.3 32.5
16:50 1017 30.03 846 24.98 18.6 65.5 29 0.6 33
16:55 1017 30.03 846 24.98 19 66.2 29 0.5 32.9
17:00 1017 30.03 846 24.98 19.3 66.7 28 0.7 33.3
17:05 1017 30.03 846 24.98 18.7 65.6 30 0.8 33.4
17:10 1017 30.03 846 24.98 18.4 65.1 29 0.2 32.4
17:15 1017 30.03 846 24.98 18.8 65.8 29 0.7 33.2
17:20 1017 30.03 846 24.98 18.8 65.8 30 0.9 33.6
17:25 1017 30.03 846 24.98 18.8 65.8 30 0.8 33.4
17:30 1017 30.03 846 24.98 18.7 65.6 31 1.2 34.1
17:35 1017 30.03 846 24.98 18.2 64.7 31 0.8 33.4
17:40 1017 30.03 846 24.98 18.3 65 30 0.4 32.7
17:45 1017 30.03 846 24.98 18.3 64.9 30 0.7 33.2
17:50 1017 30.03 846 24.98 18 64.5 31 0.8 33.4
17:55 1017 30.03 846 24.98 18.1 64.6 29 0.1 32.2
18:00 1017 30.03 846 24.98 18.4 65.2 30 0.8 33.4
18:05 1017 30.03 846 24.98 18.6 65.4 30 0.7 33.2
18:10 1017 30.03 846 24.98 18.6 65.6 30 1 33.8
18:15 1017 30.03 846 24.98 18.3 64.9 31 1.1 33.9
18:20 1017 30.03 846 24.98 18 64.4 32 1.1 33.9
18:25 1017 30.03 846 24.98 18.1 64.7 31 1 33.8
18:30 1017 30.03 846 24.98 18.2 64.8 31 0.8 33.4
18:35 1017 30.03 846 24.98 18 64.4 31 0.9 33.6
18:40 1017 30.03 846 24.98 17.8 64.1 33 1.3 34.4
18:45 1017 30.03 846 24.98 17.9 64.2 32 1.2 34.1
18:50 1017 30.03 846 24.98 17.9 64.1 32 1.2 34.1
18:55 1017 30.03 846 24.98 17.8 64 32 1.1 33.9
19:00 1017 30.03 846 24.98 17.9 64.1 32 1 33.8
19:05 1017 30.03 846 24.98 17.7 63.9 33 1.5 34.6
19:10 1017 30.03 846 24.98 18 64.4 31 0.9 33.6
19:15 1017 30.03 846 24.98 18 64.4 31 0.7 33.3
19:20 1017 30.03 846 24.98 17.8 64.1 32 1.2 34.1
19:25 1017 30.03 846 24.98 17.6 63.6 32 0.9 33.6
19:30 1017 30.03 846 24.98 17.5 63.5 33 1 33.9
19:35 1017 30.03 846 24.98 17 62.6 34 1.3 34.4
19:40 1017 30.03 846 24.98 17 62.5 35 1.6 34.9
19:45 1017 30.03 846 24.98 16.9 62.4 35 1.5 34.7
19:50 1017 30.03 846 24.98 16.7 62.1 35 1.2 34.2
19:55 1017 30.03 846 24.98 16.7 62.1 35 1.1 34
20:00 1017 30.03 846 24.98 16.6 61.8 35 1.1 34.1
20:05 1017 30.03 846 24.98 16.7 62 34 0.8 33.4
20:10 1017 30.03 846 24.98 16.5 61.8 35 1.2 34.2
20:15 1017 30.03 846 24.98 16.4 61.6 36 1.4 34.5
20:20 1017 30.03 846 24.98 16.4 61.5 36 1.3 34.4
20:25 1017 30.03 846 24.98 16.3 61.3 37 1.7 35.1
20:30 1017 30.03 846 24.98 16.2 61.1 38 2 35.6
20:35 1017 30.03 846 24.98 16 60.8 39 2.3 36.1
20:40 1017 30.03 846 24.98 16 60.8 40 2.6 36.7
20:45 1017 30.03 846 24.98 15.9 60.5 40 2.3 36.2
20:50 1017 30.03 846 24.98 15.7 60.3 40 2.4 36.3
20:55 1017 30.03 846 24.98 15.6 60.1 43 3.1 37.6
21:00 1017 30.03 846 24.98 15.4 59.7 43 2.9 37.2
21:05 1017 30.03 846 24.98 15.2 59.4 44 3 37.4
21:10 1017 30.03 847 25.01 15.1 59.1 45 3.2 37.7
21:15 1017 30.03 847 25.01 14.8 58.7 46 3.5 38.3
21:20 1017 30.03 847 25.01 14.5 58.1 48 3.6 38.5
21:25 1017 30.03 847 25.01 14.3 57.7 49 3.7 38.7
21:30 1017 30.03 847 25.01 14.1 57.4 49 3.6 38.4
21:35 1018 30.06 847 25.01 13.9 57.1 52 4.3 39.8
21:40 1018 30.06 847 25.01 13.2 55.7 56 4.6 40.2
21:45 1018 30.06 847 25.01 12.7 54.8 57 4.4 39.9
21:50 1018 30.06 847 25.01 12.4 54.4 58 4.5 40
21:55 1018 30.06 847 25.01 12.2 54 59 4.4 40
22:00 1018 30.06 847 25.01 12 53.6 60 4.5 40.1
22:05 1018 30.06 847 25.01 11.8 53.2 60 4.4 39.9
22:10 1018 30.06 847 25.01 11.6 52.9 61 4.4 40
22:15 1018 30.06 847 25.01 11.5 52.7 62 4.4 39.9
22:20 1018 30.06 847 25.01 11.2 52.2 63 4.5 40.2
22:25 1018 30.06 847 25.01 11 51.7 63 4.3 39.8
22:30 1018 30.06 847 25.01 10.8 51.5 63 4.2 39.5
22:35 1018 30.06 847 25.01 10.7 51.2 64 4.2 39.6
22:40 1018 30.06 847 25.01 10.4 50.7 66 4.3 39.8
22:45 1018 30.06 847 25.01 10.2 50.3 66 4.2 39.6
22:50 1018 30.06 847 25.01 10 50 66 3.9 39.1
22:55 1018 30.06 847 25.01 10 49.9 66 3.8 38.9
23:00 1018 30.06 847 25.01 10 50.1 66 4 39.2
23:05 1018 30.06 847 25.01 9.9 49.9 64 3.5 38.2
23:10 1018 30.06 847 25.01 10 50 65 3.7 38.7
23:15 1018 30.06 847 25.01 9.9 49.7 65 3.6 38.5
23:20 1018 30.06 847 25.01 9.8 49.7 64 3.4 38.2
23:25 1018 30.06 848 25.04 9.8 49.7 65 3.5 38.4
23:30 1018 30.06 848 25.04 9.8 49.6 64 3.4 38.2
23:35 1018 30.06 848 25.04 9.9 49.8 63 3.2 37.8
23:40 1018 30.06 848 25.04 10 50.1 62 3.2 37.7
23:45 1018 30.06 848 25.04 10.1 50.2 63 3.5 38.3
23:50 1018 30.06 848 25.04 10 50 62 3.1 37.6
23:55 1018 30.06 847 25.01 10.1 50.2 63 3.4 38.1
24:00 1018 30.06 848 25.04 10 50 63 3.4 38.2